sensor_id;sensor_type;location;lat;lon;timestamp;P1;durP1;ratioP1;P2;durP2;ratioP2
6505;SDS011;3286;49.858;8.768;2023-05-20T00:00:38;2.83;;;1.97;;
6505;SDS011;3286;49.858;8.768;2023-05-20T00:03:05;7.53;;;1.97;;
6505;SDS011;3286;49.858;8.768;2023-05-20T00:05:31;2.80;;;2.03;;
6505;SDS011;3286;49.858;8.768;2023-05-20T00:07:58;2.67;;;1.90;;
6505;SDS011;3286;49.858;8.768;2023-05-20T00:10:28;2.10;;;1.80;;
6505;SDS011;3286;49.858;8.768;2023-05-20T00:12:55;2.57;;;1.77;;
6505;SDS011;3286;49.858;8.768;2023-05-20T00:15:23;3.13;;;2.00;;
6505;SDS011;3286;49.858;8.768;2023-05-20T00:17:49;2.20;;;1.80;;
6505;SDS011;3286;49.858;8.768;2023-05-20T00:20:16;3.40;;;1.80;;
6505;SDS011;3286;49.858;8.768;2023-05-20T00:22:43;3.97;;;2.00;;
6505;SDS011;3286;49.858;8.768;2023-05-20T00:25:09;3.63;;;1.90;;
6505;SDS011;3286;49.858;8.768;2023-05-20T00:27:38;2.83;;;1.83;;
6505;SDS011;3286;49.858;8.768;2023-05-20T00:30:05;3.00;;;1.97;;
6505;SDS011;3286;49.858;8.768;2023-05-20T00:32:34;3.23;;;1.83;;
6505;SDS011;3286;49.858;8.768;2023-05-20T00:35:01;3.17;;;2.10;;
6505;SDS011;3286;49.858;8.768;2023-05-20T00:37:28;3.70;;;2.10;;
6505;SDS011;3286;49.858;8.768;2023-05-20T00:39:55;7.07;;;2.27;;
6505;SDS011;3286;49.858;8.768;2023-05-20T00:42:22;2.27;;;1.80;;
6505;SDS011;3286;49.858;8.768;2023-05-20T00:44:49;3.73;;;2.00;;
6505;SDS011;3286;49.858;8.768;2023-05-20T00:47:17;2.03;;;1.77;;
6505;SDS011;3286;49.858;8.768;2023-05-20T00:49:47;3.07;;;1.90;;
6505;SDS011;3286;49.858;8.768;2023-05-20T00:52:15;4.03;;;2.00;;
6505;SDS011;3286;49.858;8.768;2023-05-20T00:54:43;3.37;;;2.00;;
6505;SDS011;3286;49.858;8.768;2023-05-20T00:57:10;4.83;;;1.90;;
6505;SDS011;3286;49.858;8.768;2023-05-20T00:59:37;3.43;;;1.90;;
6505;SDS011;3286;49.858;8.768;2023-05-20T01:02:05;4.93;;;2.20;;
6505;SDS011;3286;49.858;8.768;2023-05-20T01:04:32;5.03;;;1.80;;
6505;SDS011;3286;49.858;8.768;2023-05-20T01:07:01;2.27;;;2.07;;
6505;SDS011;3286;49.858;8.768;2023-05-20T01:09:29;3.97;;;2.10;;
6505;SDS011;3286;49.858;8.768;2023-05-20T01:11:58;6.20;;;2.30;;
6505;SDS011;3286;49.858;8.768;2023-05-20T01:14:31;2.20;;;2.00;;
6505;SDS011;3286;49.858;8.768;2023-05-20T01:17:02;2.30;;;2.10;;
6505;SDS011;3286;49.858;8.768;2023-05-20T01:19:35;4.93;;;2.30;;
6505;SDS011;3286;49.858;8.768;2023-05-20T01:22:07;2.67;;;2.10;;
6505;SDS011;3286;49.858;8.768;2023-05-20T01:24:37;4.23;;;2.20;;
6505;SDS011;3286;49.858;8.768;2023-05-20T01:27:05;2.70;;;2.13;;
6505;SDS011;3286;49.858;8.768;2023-05-20T01:29:34;2.63;;;2.00;;
6505;SDS011;3286;49.858;8.768;2023-05-20T01:32:01;3.80;;;2.20;;
6505;SDS011;3286;49.858;8.768;2023-05-20T01:34:32;5.43;;;2.20;;
6505;SDS011;3286;49.858;8.768;2023-05-20T01:37:01;3.20;;;2.10;;
6505;SDS011;3286;49.858;8.768;2023-05-20T01:39:29;2.30;;;1.90;;
6505;SDS011;3286;49.858;8.768;2023-05-20T01:41:58;4.47;;;2.30;;
6505;SDS011;3286;49.858;8.768;2023-05-20T01:44:27;3.27;;;2.30;;
6505;SDS011;3286;49.858;8.768;2023-05-20T01:46:53;3.53;;;2.10;;
6505;SDS011;3286;49.858;8.768;2023-05-20T01:49:20;3.30;;;2.30;;
6505;SDS011;3286;49.858;8.768;2023-05-20T01:51:47;3.30;;;2.17;;
6505;SDS011;3286;49.858;8.768;2023-05-20T01:54:13;3.53;;;2.20;;
6505;SDS011;3286;49.858;8.768;2023-05-20T01:56:40;4.80;;;2.10;;
6505;SDS011;3286;49.858;8.768;2023-05-20T01:59:10;3.27;;;2.43;;
6505;SDS011;3286;49.858;8.768;2023-05-20T02:01:36;3.30;;;2.27;;
6505;SDS011;3286;49.858;8.768;2023-05-20T02:04:03;3.43;;;2.17;;
6505;SDS011;3286;49.858;8.768;2023-05-20T02:06:30;2.47;;;2.20;;
6505;SDS011;3286;49.858;8.768;2023-05-20T02:08:56;5.57;;;2.50;;
6505;SDS011;3286;49.858;8.768;2023-05-20T02:11:23;2.70;;;2.20;;
6505;SDS011;3286;49.858;8.768;2023-05-20T02:13:50;4.97;;;2.27;;
6505;SDS011;3286;49.858;8.768;2023-05-20T02:16:18;3.57;;;2.63;;
6505;SDS011;3286;49.858;8.768;2023-05-20T02:18:44;3.27;;;2.17;;
6505;SDS011;3286;49.858;8.768;2023-05-20T02:21:12;4.80;;;2.10;;
6505;SDS011;3286;49.858;8.768;2023-05-20T02:23:39;2.83;;;2.23;;
6505;SDS011;3286;49.858;8.768;2023-05-20T02:26:05;4.10;;;2.37;;
6505;SDS011;3286;49.858;8.768;2023-05-20T02:28:32;3.63;;;2.30;;
6505;SDS011;3286;49.858;8.768;2023-05-20T02:30:58;4.30;;;2.33;;
6505;SDS011;3286;49.858;8.768;2023-05-20T02:33:26;3.27;;;2.30;;
6505;SDS011;3286;49.858;8.768;2023-05-20T02:35:53;6.23;;;2.60;;
6505;SDS011;3286;49.858;8.768;2023-05-20T02:38:20;3.47;;;2.20;;
6505;SDS011;3286;49.858;8.768;2023-05-20T02:40:46;6.73;;;2.43;;
6505;SDS011;3286;49.858;8.768;2023-05-20T02:43:13;6.80;;;2.40;;
6505;SDS011;3286;49.858;8.768;2023-05-20T02:45:40;5.60;;;2.77;;
6505;SDS011;3286;49.858;8.768;2023-05-20T02:48:06;5.37;;;2.40;;
6505;SDS011;3286;49.858;8.768;2023-05-20T02:50:36;5.77;;;2.43;;
6505;SDS011;3286;49.858;8.768;2023-05-20T02:53:03;4.70;;;2.73;;
6505;SDS011;3286;49.858;8.768;2023-05-20T02:55:32;3.43;;;2.60;;
6505;SDS011;3286;49.858;8.768;2023-05-20T02:57:59;4.00;;;2.63;;
6505;SDS011;3286;49.858;8.768;2023-05-20T03:00:26;3.97;;;2.30;;
6505;SDS011;3286;49.858;8.768;2023-05-20T03:02:54;2.80;;;2.37;;
6505;SDS011;3286;49.858;8.768;2023-05-20T03:05:21;20.10;;;6.73;;
6505;SDS011;3286;49.858;8.768;2023-05-20T03:07:49;5.00;;;2.70;;
6505;SDS011;3286;49.858;8.768;2023-05-20T03:10:15;3.07;;;2.27;;
6505;SDS011;3286;49.858;8.768;2023-05-20T03:12:42;3.37;;;2.57;;
6505;SDS011;3286;49.858;8.768;2023-05-20T03:15:09;3.07;;;2.70;;
6505;SDS011;3286;49.858;8.768;2023-05-20T03:17:36;3.17;;;2.30;;
6505;SDS011;3286;49.858;8.768;2023-05-20T03:20:03;3.43;;;2.73;;
6505;SDS011;3286;49.858;8.768;2023-05-20T03:22:38;3.40;;;2.33;;
6505;SDS011;3286;49.858;8.768;2023-05-20T03:25:06;3.37;;;2.60;;
6505;SDS011;3286;49.858;8.768;2023-05-20T03:27:34;3.23;;;2.50;;
6505;SDS011;3286;49.858;8.768;2023-05-20T03:30:02;4.93;;;2.40;;
6505;SDS011;3286;49.858;8.768;2023-05-20T03:32:29;4.03;;;2.77;;
6505;SDS011;3286;49.858;8.768;2023-05-20T03:34:56;9.80;;;4.20;;
6505;SDS011;3286;49.858;8.768;2023-05-20T03:37:24;4.00;;;2.40;;
6505;SDS011;3286;49.858;8.768;2023-05-20T03:39:51;5.23;;;2.97;;
6505;SDS011;3286;49.858;8.768;2023-05-20T03:42:19;4.97;;;2.50;;
6505;SDS011;3286;49.858;8.768;2023-05-20T03:44:46;4.17;;;2.87;;
6505;SDS011;3286;49.858;8.768;2023-05-20T03:47:13;3.43;;;2.57;;
6505;SDS011;3286;49.858;8.768;2023-05-20T03:49:39;3.17;;;2.60;;
6505;SDS011;3286;49.858;8.768;2023-05-20T03:52:06;5.07;;;2.83;;
6505;SDS011;3286;49.858;8.768;2023-05-20T03:54:33;3.43;;;2.50;;
6505;SDS011;3286;49.858;8.768;2023-05-20T03:57:01;3.97;;;2.70;;
6505;SDS011;3286;49.858;8.768;2023-05-20T03:59:29;6.53;;;2.60;;
6505;SDS011;3286;49.858;8.768;2023-05-20T04:01:56;7.93;;;2.50;;
6505;SDS011;3286;49.858;8.768;2023-05-20T04:04:23;4.47;;;2.53;;
6505;SDS011;3286;49.858;8.768;2023-05-20T04:06:50;2.97;;;2.60;;
6505;SDS011;3286;49.858;8.768;2023-05-20T04:09:16;5.53;;;2.80;;
6505;SDS011;3286;49.858;8.768;2023-05-20T04:11:43;3.70;;;2.57;;
6505;SDS011;3286;49.858;8.768;2023-05-20T04:14:10;4.97;;;2.77;;
6505;SDS011;3286;49.858;8.768;2023-05-20T04:16:38;3.73;;;2.80;;
6505;SDS011;3286;49.858;8.768;2023-05-20T04:19:04;6.23;;;2.83;;
6505;SDS011;3286;49.858;8.768;2023-05-20T04:21:31;4.97;;;2.80;;
6505;SDS011;3286;49.858;8.768;2023-05-20T04:23:58;3.13;;;2.63;;
6505;SDS011;3286;49.858;8.768;2023-05-20T04:26:25;3.30;;;2.90;;
6505;SDS011;3286;49.858;8.768;2023-05-20T04:28:53;3.13;;;2.83;;
6505;SDS011;3286;49.858;8.768;2023-05-20T04:31:22;3.37;;;2.80;;
6505;SDS011;3286;49.858;8.768;2023-05-20T04:33:52;3.93;;;2.90;;
6505;SDS011;3286;49.858;8.768;2023-05-20T04:36:18;3.30;;;2.80;;
6505;SDS011;3286;49.858;8.768;2023-05-20T04:38:46;3.57;;;2.73;;
6505;SDS011;3286;49.858;8.768;2023-05-20T04:41:13;3.47;;;2.77;;
6505;SDS011;3286;49.858;8.768;2023-05-20T04:43:41;3.03;;;2.40;;
6505;SDS011;3286;49.858;8.768;2023-05-20T04:46:08;5.33;;;3.17;;
6505;SDS011;3286;49.858;8.768;2023-05-20T04:48:34;4.27;;;3.10;;
6505;SDS011;3286;49.858;8.768;2023-05-20T04:51:02;4.27;;;2.90;;
6505;SDS011;3286;49.858;8.768;2023-05-20T04:53:29;4.00;;;3.10;;
6505;SDS011;3286;49.858;8.768;2023-05-20T04:55:57;3.83;;;2.70;;
6505;SDS011;3286;49.858;8.768;2023-05-20T04:58:24;4.00;;;3.07;;
6505;SDS011;3286;49.858;8.768;2023-05-20T05:00:51;4.53;;;3.10;;
6505;SDS011;3286;49.858;8.768;2023-05-20T05:03:17;4.23;;;3.03;;
6505;SDS011;3286;49.858;8.768;2023-05-20T05:05:44;4.13;;;2.97;;
6505;SDS011;3286;49.858;8.768;2023-05-20T05:08:12;3.00;;;2.70;;
6505;SDS011;3286;49.858;8.768;2023-05-20T05:10:39;3.90;;;3.03;;
6505;SDS011;3286;49.858;8.768;2023-05-20T05:13:06;3.47;;;2.87;;
6505;SDS011;3286;49.858;8.768;2023-05-20T05:15:32;5.57;;;3.27;;
6505;SDS011;3286;49.858;8.768;2023-05-20T05:17:59;5.13;;;3.17;;
6505;SDS011;3286;49.858;8.768;2023-05-20T05:20:26;5.73;;;3.13;;
6505;SDS011;3286;49.858;8.768;2023-05-20T05:22:53;4.20;;;2.97;;
6505;SDS011;3286;49.858;8.768;2023-05-20T05:25:21;4.40;;;3.30;;
6505;SDS011;3286;49.858;8.768;2023-05-20T05:27:48;3.63;;;3.30;;
6505;SDS011;3286;49.858;8.768;2023-05-20T05:30:15;4.77;;;3.10;;
6505;SDS011;3286;49.858;8.768;2023-05-20T05:32:42;4.63;;;3.20;;
6505;SDS011;3286;49.858;8.768;2023-05-20T05:35:09;3.77;;;3.07;;
6505;SDS011;3286;49.858;8.768;2023-05-20T05:37:36;5.53;;;3.40;;
6505;SDS011;3286;49.858;8.768;2023-05-20T05:40:02;6.60;;;3.40;;
6505;SDS011;3286;49.858;8.768;2023-05-20T05:42:31;3.83;;;2.83;;
6505;SDS011;3286;49.858;8.768;2023-05-20T05:44:57;4.53;;;3.33;;
6505;SDS011;3286;49.858;8.768;2023-05-20T05:47:24;3.50;;;3.00;;
6505;SDS011;3286;49.858;8.768;2023-05-20T05:49:58;3.53;;;2.93;;
6505;SDS011;3286;49.858;8.768;2023-05-20T05:52:25;4.73;;;3.17;;
6505;SDS011;3286;49.858;8.768;2023-05-20T05:54:52;4.03;;;3.10;;
6505;SDS011;3286;49.858;8.768;2023-05-20T05:57:19;6.30;;;3.10;;
6505;SDS011;3286;49.858;8.768;2023-05-20T05:59:47;4.43;;;3.33;;
6505;SDS011;3286;49.858;8.768;2023-05-20T06:02:14;5.80;;;3.63;;
6505;SDS011;3286;49.858;8.768;2023-05-20T06:04:41;4.87;;;3.20;;
6505;SDS011;3286;49.858;8.768;2023-05-20T06:07:07;3.87;;;3.00;;
6505;SDS011;3286;49.858;8.768;2023-05-20T06:09:34;5.73;;;3.20;;
6505;SDS011;3286;49.858;8.768;2023-05-20T06:12:01;5.30;;;3.10;;
6505;SDS011;3286;49.858;8.768;2023-05-20T06:14:28;4.50;;;3.63;;
6505;SDS011;3286;49.858;8.768;2023-05-20T06:16:57;3.57;;;3.13;;
6505;SDS011;3286;49.858;8.768;2023-05-20T06:19:23;3.40;;;3.00;;
6505;SDS011;3286;49.858;8.768;2023-05-20T06:21:50;5.53;;;3.40;;
6505;SDS011;3286;49.858;8.768;2023-05-20T06:24:17;4.87;;;3.33;;
6505;SDS011;3286;49.858;8.768;2023-05-20T06:26:43;5.60;;;3.03;;
6505;SDS011;3286;49.858;8.768;2023-05-20T06:29:10;4.13;;;3.30;;
6505;SDS011;3286;49.858;8.768;2023-05-20T06:31:36;4.97;;;3.53;;
6505;SDS011;3286;49.858;8.768;2023-05-20T06:34:04;5.10;;;3.00;;
6505;SDS011;3286;49.858;8.768;2023-05-20T06:36:31;4.03;;;3.20;;
6505;SDS011;3286;49.858;8.768;2023-05-20T06:38:58;4.13;;;3.13;;
6505;SDS011;3286;49.858;8.768;2023-05-20T06:41:26;4.73;;;3.23;;
6505;SDS011;3286;49.858;8.768;2023-05-20T06:43:53;5.32;;;3.20;;
6505;SDS011;3286;49.858;8.768;2023-05-20T06:46:20;4.17;;;3.20;;
6505;SDS011;3286;49.858;8.768;2023-05-20T06:48:47;3.47;;;3.17;;
6505;SDS011;3286;49.858;8.768;2023-05-20T06:51:15;5.10;;;3.50;;
6505;SDS011;3286;49.858;8.768;2023-05-20T06:53:41;4.37;;;3.60;;
6505;SDS011;3286;49.858;8.768;2023-05-20T06:56:08;8.17;;;3.37;;
6505;SDS011;3286;49.858;8.768;2023-05-20T06:58:40;3.90;;;3.40;;
6505;SDS011;3286;49.858;8.768;2023-05-20T07:01:07;3.97;;;3.13;;
6505;SDS011;3286;49.858;8.768;2023-05-20T07:03:33;4.47;;;3.25;;
6505;SDS011;3286;49.858;8.768;2023-05-20T07:06:00;7.25;;;3.53;;
6505;SDS011;3286;49.858;8.768;2023-05-20T07:08:28;9.32;;;3.20;;
6505;SDS011;3286;49.858;8.768;2023-05-20T07:10:55;5.40;;;3.22;;
6505;SDS011;3286;49.858;8.768;2023-05-20T07:13:22;3.97;;;3.45;;
6505;SDS011;3286;49.858;8.768;2023-05-20T07:15:50;5.70;;;3.53;;
6505;SDS011;3286;49.858;8.768;2023-05-20T07:18:17;4.35;;;3.55;;
6505;SDS011;3286;49.858;8.768;2023-05-20T07:20:43;5.20;;;3.63;;
6505;SDS011;3286;49.858;8.768;2023-05-20T07:23:10;4.65;;;3.58;;
6505;SDS011;3286;49.858;8.768;2023-05-20T07:25:38;7.05;;;3.88;;
6505;SDS011;3286;49.858;8.768;2023-05-20T07:28:05;3.95;;;3.38;;
6505;SDS011;3286;49.858;8.768;2023-05-20T07:30:31;5.75;;;3.22;;
6505;SDS011;3286;49.858;8.768;2023-05-20T07:32:58;4.90;;;3.45;;
6505;SDS011;3286;49.858;8.768;2023-05-20T07:35:24;8.43;;;3.70;;
6505;SDS011;3286;49.858;8.768;2023-05-20T07:37:51;6.47;;;3.83;;
6505;SDS011;3286;49.858;8.768;2023-05-20T07:40:18;4.55;;;3.55;;
6505;SDS011;3286;49.858;8.768;2023-05-20T07:42:46;4.63;;;3.80;;
6505;SDS011;3286;49.858;8.768;2023-05-20T07:45:12;4.10;;;3.70;;
6505;SDS011;3286;49.858;8.768;2023-05-20T07:47:39;7.05;;;3.28;;
6505;SDS011;3286;49.858;8.768;2023-05-20T07:50:06;4.70;;;3.80;;
6505;SDS011;3286;49.858;8.768;2023-05-20T07:52:33;3.80;;;3.45;;
6505;SDS011;3286;49.858;8.768;2023-05-20T07:54:59;4.82;;;3.17;;
6505;SDS011;3286;49.858;8.768;2023-05-20T07:57:26;3.63;;;3.22;;
6505;SDS011;3286;49.858;8.768;2023-05-20T07:59:54;5.22;;;3.85;;
6505;SDS011;3286;49.858;8.768;2023-05-20T08:02:20;8.05;;;3.63;;
6505;SDS011;3286;49.858;8.768;2023-05-20T08:04:47;4.95;;;3.50;;
6505;SDS011;3286;49.858;8.768;2023-05-20T08:07:14;4.25;;;3.67;;
6505;SDS011;3286;49.858;8.768;2023-05-20T08:09:40;4.22;;;3.50;;
6505;SDS011;3286;49.858;8.768;2023-05-20T08:12:07;5.30;;;3.80;;
6505;SDS011;3286;49.858;8.768;2023-05-20T08:14:33;4.75;;;3.95;;
6505;SDS011;3286;49.858;8.768;2023-05-20T08:17:01;6.55;;;3.47;;
6505;SDS011;3286;49.858;8.768;2023-05-20T08:19:28;6.95;;;4.30;;
6505;SDS011;3286;49.858;8.768;2023-05-20T08:21:55;5.40;;;4.05;;
6505;SDS011;3286;49.858;8.768;2023-05-20T08:24:22;6.40;;;4.03;;
6505;SDS011;3286;49.858;8.768;2023-05-20T08:26:48;6.13;;;3.90;;
6505;SDS011;3286;49.858;8.768;2023-05-20T08:29:15;5.50;;;3.83;;
6505;SDS011;3286;49.858;8.768;2023-05-20T08:31:42;4.47;;;3.90;;
6505;SDS011;3286;49.858;8.768;2023-05-20T08:34:10;4.85;;;3.85;;
6505;SDS011;3286;49.858;8.768;2023-05-20T08:36:37;4.10;;;3.75;;
6505;SDS011;3286;49.858;8.768;2023-05-20T08:39:03;5.18;;;4.10;;
6505;SDS011;3286;49.858;8.768;2023-05-20T08:41:30;6.20;;;4.18;;
6505;SDS011;3286;49.858;8.768;2023-05-20T08:43:57;5.13;;;4.60;;
6505;SDS011;3286;49.858;8.768;2023-05-20T08:46:26;5.97;;;4.00;;
6505;SDS011;3286;49.858;8.768;2023-05-20T08:48:53;5.25;;;4.15;;
6505;SDS011;3286;49.858;8.768;2023-05-20T08:51:21;5.38;;;4.38;;
6505;SDS011;3286;49.858;8.768;2023-05-20T08:53:51;5.53;;;4.65;;
6505;SDS011;3286;49.858;8.768;2023-05-20T08:56:19;4.85;;;4.18;;
6505;SDS011;3286;49.858;8.768;2023-05-20T08:58:47;6.03;;;4.63;;
6505;SDS011;3286;49.858;8.768;2023-05-20T09:01:14;5.35;;;4.40;;
6505;SDS011;3286;49.858;8.768;2023-05-20T09:03:42;8.48;;;4.07;;
6505;SDS011;3286;49.858;8.768;2023-05-20T09:06:08;5.68;;;4.63;;
6505;SDS011;3286;49.858;8.768;2023-05-20T09:08:38;4.82;;;4.25;;
6505;SDS011;3286;49.858;8.768;2023-05-20T09:11:05;5.45;;;4.28;;
6505;SDS011;3286;49.858;8.768;2023-05-20T09:13:35;4.63;;;4.13;;
6505;SDS011;3286;49.858;8.768;2023-05-20T09:16:02;5.22;;;4.50;;
6505;SDS011;3286;49.858;8.768;2023-05-20T09:18:28;4.43;;;4.03;;
6505;SDS011;3286;49.858;8.768;2023-05-20T09:20:55;4.20;;;3.58;;
6505;SDS011;3286;49.858;8.768;2023-05-20T09:23:22;7.07;;;4.68;;
6505;SDS011;3286;49.858;8.768;2023-05-20T09:25:52;5.35;;;4.57;;
6505;SDS011;3286;49.858;8.768;2023-05-20T09:28:21;5.97;;;4.25;;
6505;SDS011;3286;49.858;8.768;2023-05-20T09:30:49;6.40;;;4.70;;
6505;SDS011;3286;49.858;8.768;2023-05-20T09:33:16;5.05;;;4.53;;
6505;SDS011;3286;49.858;8.768;2023-05-20T09:35:43;4.93;;;3.92;;
6505;SDS011;3286;49.858;8.768;2023-05-20T09:38:10;5.68;;;4.50;;
6505;SDS011;3286;49.858;8.768;2023-05-20T09:40:37;5.13;;;4.55;;
6505;SDS011;3286;49.858;8.768;2023-05-20T09:43:05;4.97;;;4.40;;
6505;SDS011;3286;49.858;8.768;2023-05-20T09:45:35;5.45;;;4.35;;
6505;SDS011;3286;49.858;8.768;2023-05-20T09:48:03;7.78;;;4.65;;
6505;SDS011;3286;49.858;8.768;2023-05-20T09:50:30;7.35;;;4.57;;
6505;SDS011;3286;49.858;8.768;2023-05-20T09:53:01;5.47;;;4.28;;
6505;SDS011;3286;49.858;8.768;2023-05-20T09:55:28;4.75;;;3.95;;
6505;SDS011;3286;49.858;8.768;2023-05-20T09:57:56;4.55;;;3.97;;
6505;SDS011;3286;49.858;8.768;2023-05-20T10:00:27;6.15;;;4.55;;
6505;SDS011;3286;49.858;8.768;2023-05-20T10:02:53;5.30;;;4.60;;
6505;SDS011;3286;49.858;8.768;2023-05-20T10:05:21;5.93;;;5.18;;
6505;SDS011;3286;49.858;8.768;2023-05-20T10:08:15;6.43;;;4.60;;
6505;SDS011;3286;49.858;8.768;2023-05-20T10:10:55;5.55;;;4.20;;
6505;SDS011;3286;49.858;8.768;2023-05-20T10:13:35;4.68;;;4.18;;
6505;SDS011;3286;49.858;8.768;2023-05-20T10:16:25;5.88;;;4.22;;
6505;SDS011;3286;49.858;8.768;2023-05-20T10:19:00;8.30;;;4.07;;
6505;SDS011;3286;49.858;8.768;2023-05-20T10:21:34;6.03;;;4.45;;
6505;SDS011;3286;49.858;8.768;2023-05-20T10:24:04;4.68;;;4.25;;
6505;SDS011;3286;49.858;8.768;2023-05-20T10:26:35;6.20;;;4.50;;
6505;SDS011;3286;49.858;8.768;2023-05-20T10:29:13;5.32;;;4.45;;
6505;SDS011;3286;49.858;8.768;2023-05-20T10:31:44;6.78;;;4.50;;
6505;SDS011;3286;49.858;8.768;2023-05-20T10:34:15;15.23;;;4.45;;
6505;SDS011;3286;49.858;8.768;2023-05-20T10:36:44;9.30;;;4.55;;
6505;SDS011;3286;49.858;8.768;2023-05-20T10:39:14;7.03;;;4.78;;
6505;SDS011;3286;49.858;8.768;2023-05-20T10:41:41;5.38;;;4.38;;
6505;SDS011;3286;49.858;8.768;2023-05-20T10:44:08;7.55;;;4.80;;
6505;SDS011;3286;49.858;8.768;2023-05-20T10:46:35;5.05;;;4.30;;
6505;SDS011;3286;49.858;8.768;2023-05-20T10:49:03;5.78;;;4.60;;
6505;SDS011;3286;49.858;8.768;2023-05-20T10:51:30;5.85;;;4.78;;
6505;SDS011;3286;49.858;8.768;2023-05-20T10:53:57;7.88;;;4.50;;
6505;SDS011;3286;49.858;8.768;2023-05-20T10:56:25;6.35;;;4.57;;
6505;SDS011;3286;49.858;8.768;2023-05-20T10:58:52;7.07;;;5.20;;
6505;SDS011;3286;49.858;8.768;2023-05-20T11:01:22;9.05;;;4.50;;
6505;SDS011;3286;49.858;8.768;2023-05-20T11:03:49;6.72;;;4.93;;
6505;SDS011;3286;49.858;8.768;2023-05-20T11:06:18;6.05;;;4.80;;
6505;SDS011;3286;49.858;8.768;2023-05-20T11:08:45;5.70;;;4.68;;
6505;SDS011;3286;49.858;8.768;2023-05-20T11:11:12;7.90;;;5.13;;
6505;SDS011;3286;49.858;8.768;2023-05-20T11:13:39;6.55;;;4.63;;
6505;SDS011;3286;49.858;8.768;2023-05-20T11:16:06;7.78;;;5.28;;
6505;SDS011;3286;49.858;8.768;2023-05-20T11:18:34;4.78;;;4.32;;
6505;SDS011;3286;49.858;8.768;2023-05-20T11:21:01;6.53;;;4.43;;
6505;SDS011;3286;49.858;8.768;2023-05-20T11:23:29;5.35;;;4.85;;
6505;SDS011;3286;49.858;8.768;2023-05-20T11:25:56;5.10;;;4.60;;
6505;SDS011;3286;49.858;8.768;2023-05-20T11:28:23;9.18;;;5.18;;
6505;SDS011;3286;49.858;8.768;2023-05-20T11:30:50;8.75;;;5.25;;
6505;SDS011;3286;49.858;8.768;2023-05-20T11:33:19;8.85;;;5.30;;
6505;SDS011;3286;49.858;8.768;2023-05-20T11:35:47;5.32;;;4.78;;
6505;SDS011;3286;49.858;8.768;2023-05-20T11:38:16;10.38;;;4.95;;
6505;SDS011;3286;49.858;8.768;2023-05-20T11:40:45;10.73;;;5.05;;
6505;SDS011;3286;49.858;8.768;2023-05-20T11:43:13;5.75;;;4.97;;
6505;SDS011;3286;49.858;8.768;2023-05-20T11:45:41;6.88;;;5.07;;
6505;SDS011;3286;49.858;8.768;2023-05-20T11:48:09;5.50;;;4.93;;
6505;SDS011;3286;49.858;8.768;2023-05-20T11:50:36;6.43;;;4.75;;
6505;SDS011;3286;49.858;8.768;2023-05-20T11:53:05;10.52;;;5.07;;
6505;SDS011;3286;49.858;8.768;2023-05-20T11:55:33;6.53;;;5.00;;
6505;SDS011;3286;49.858;8.768;2023-05-20T11:58:10;10.38;;;4.97;;
6505;SDS011;3286;49.858;8.768;2023-05-20T12:00:40;6.50;;;5.03;;
6505;SDS011;3286;49.858;8.768;2023-05-20T12:03:07;5.35;;;4.78;;
6505;SDS011;3286;49.858;8.768;2023-05-20T12:05:34;15.00;;;5.07;;
6505;SDS011;3286;49.858;8.768;2023-05-20T12:08:00;6.53;;;5.10;;
6505;SDS011;3286;49.858;8.768;2023-05-20T12:10:27;6.35;;;4.82;;
6505;SDS011;3286;49.858;8.768;2023-05-20T12:12:55;5.85;;;5.07;;
6505;SDS011;3286;49.858;8.768;2023-05-20T12:15:23;8.88;;;5.13;;
6505;SDS011;3286;49.858;8.768;2023-05-20T12:17:51;5.65;;;4.72;;
6505;SDS011;3286;49.858;8.768;2023-05-20T12:20:19;6.53;;;5.50;;
6505;SDS011;3286;49.858;8.768;2023-05-20T12:22:47;9.38;;;5.03;;
6505;SDS011;3286;49.858;8.768;2023-05-20T12:25:15;10.68;;;5.43;;
6505;SDS011;3286;49.858;8.768;2023-05-20T12:27:43;6.60;;;4.88;;
6505;SDS011;3286;49.858;8.768;2023-05-20T12:30:12;7.82;;;5.28;;
6505;SDS011;3286;49.858;8.768;2023-05-20T12:32:42;6.88;;;5.15;;
6505;SDS011;3286;49.858;8.768;2023-05-20T12:35:09;5.75;;;4.93;;
6505;SDS011;3286;49.858;8.768;2023-05-20T12:37:36;7.07;;;4.90;;
6505;SDS011;3286;49.858;8.768;2023-05-20T12:40:04;6.32;;;5.43;;
6505;SDS011;3286;49.858;8.768;2023-05-20T12:42:33;6.72;;;5.00;;
6505;SDS011;3286;49.858;8.768;2023-05-20T12:45:00;5.80;;;5.20;;
6505;SDS011;3286;49.858;8.768;2023-05-20T12:47:27;7.07;;;5.18;;
6505;SDS011;3286;49.858;8.768;2023-05-20T12:49:55;9.25;;;5.28;;
6505;SDS011;3286;49.858;8.768;2023-05-20T12:52:22;5.15;;;4.72;;
6505;SDS011;3286;49.858;8.768;2023-05-20T12:54:48;5.22;;;4.65;;
6505;SDS011;3286;49.858;8.768;2023-05-20T12:57:15;6.05;;;5.22;;
6505;SDS011;3286;49.858;8.768;2023-05-20T12:59:42;7.05;;;5.22;;
6505;SDS011;3286;49.858;8.768;2023-05-20T13:02:09;5.65;;;4.88;;
6505;SDS011;3286;49.858;8.768;2023-05-20T13:04:39;5.82;;;4.85;;
6505;SDS011;3286;49.858;8.768;2023-05-20T13:07:07;5.38;;;4.85;;
6505;SDS011;3286;49.858;8.768;2023-05-20T13:09:33;5.50;;;4.85;;
6505;SDS011;3286;49.858;8.768;2023-05-20T13:12:01;7.00;;;5.22;;
6505;SDS011;3286;49.858;8.768;2023-05-20T13:14:28;6.70;;;5.00;;
6505;SDS011;3286;49.858;8.768;2023-05-20T13:16:55;6.60;;;5.45;;
6505;SDS011;3286;49.858;8.768;2023-05-20T13:19:22;7.40;;;5.30;;
6505;SDS011;3286;49.858;8.768;2023-05-20T13:21:51;6.38;;;5.28;;
6505;SDS011;3286;49.858;8.768;2023-05-20T13:24:19;6.78;;;5.43;;
6505;SDS011;3286;49.858;8.768;2023-05-20T13:26:46;7.13;;;5.07;;
6505;SDS011;3286;49.858;8.768;2023-05-20T13:29:13;6.15;;;5.13;;
6505;SDS011;3286;49.858;8.768;2023-05-20T13:31:40;8.15;;;5.72;;
6505;SDS011;3286;49.858;8.768;2023-05-20T13:34:07;9.00;;;5.15;;
6505;SDS011;3286;49.858;8.768;2023-05-20T13:36:34;5.85;;;5.25;;
6505;SDS011;3286;49.858;8.768;2023-05-20T13:39:00;6.15;;;5.40;;
6505;SDS011;3286;49.858;8.768;2023-05-20T13:41:28;8.90;;;5.55;;
6505;SDS011;3286;49.858;8.768;2023-05-20T13:43:55;7.30;;;5.82;;
6505;SDS011;3286;49.858;8.768;2023-05-20T13:46:21;7.13;;;5.57;;
6505;SDS011;3286;49.858;8.768;2023-05-20T13:48:51;10.70;;;5.38;;
6505;SDS011;3286;49.858;8.768;2023-05-20T13:51:18;5.93;;;5.32;;
6505;SDS011;3286;49.858;8.768;2023-05-20T13:53:44;6.30;;;5.70;;
6505;SDS011;3286;49.858;8.768;2023-05-20T13:56:11;6.07;;;5.40;;
6505;SDS011;3286;49.858;8.768;2023-05-20T13:58:39;6.60;;;5.75;;
6505;SDS011;3286;49.858;8.768;2023-05-20T14:01:06;5.93;;;5.22;;
6505;SDS011;3286;49.858;8.768;2023-05-20T14:03:36;6.38;;;5.70;;
6505;SDS011;3286;49.858;8.768;2023-05-20T14:06:04;6.82;;;5.32;;
6505;SDS011;3286;49.858;8.768;2023-05-20T14:08:31;7.93;;;5.65;;
6505;SDS011;3286;49.858;8.768;2023-05-20T14:10:58;7.43;;;5.38;;
6505;SDS011;3286;49.858;8.768;2023-05-20T14:13:24;8.75;;;5.53;;
6505;SDS011;3286;49.858;8.768;2023-05-20T14:15:52;6.63;;;5.32;;
6505;SDS011;3286;49.858;8.768;2023-05-20T14:18:19;12.93;;;5.60;;
6505;SDS011;3286;49.858;8.768;2023-05-20T14:20:46;7.97;;;5.45;;
6505;SDS011;3286;49.858;8.768;2023-05-20T14:23:13;7.72;;;6.00;;
6505;SDS011;3286;49.858;8.768;2023-05-20T14:25:40;9.38;;;6.00;;
6505;SDS011;3286;49.858;8.768;2023-05-20T14:28:07;9.88;;;6.22;;
6505;SDS011;3286;49.858;8.768;2023-05-20T14:30:34;8.57;;;5.75;;
6505;SDS011;3286;49.858;8.768;2023-05-20T14:33:02;8.55;;;5.68;;
6505;SDS011;3286;49.858;8.768;2023-05-20T14:35:28;8.98;;;5.75;;
6505;SDS011;3286;49.858;8.768;2023-05-20T14:37:55;7.35;;;5.60;;
6505;SDS011;3286;49.858;8.768;2023-05-20T14:40:22;7.75;;;5.70;;
6505;SDS011;3286;49.858;8.768;2023-05-20T14:42:48;6.53;;;5.82;;
6505;SDS011;3286;49.858;8.768;2023-05-20T14:45:15;8.02;;;5.85;;
6505;SDS011;3286;49.858;8.768;2023-05-20T14:47:42;6.03;;;5.43;;
6505;SDS011;3286;49.858;8.768;2023-05-20T14:50:11;5.97;;;5.30;;
6505;SDS011;3286;49.858;8.768;2023-05-20T14:52:37;6.95;;;5.05;;
6505;SDS011;3286;49.858;8.768;2023-05-20T14:55:04;6.55;;;5.88;;
6505;SDS011;3286;49.858;8.768;2023-05-20T14:57:32;7.57;;;5.70;;
6505;SDS011;3286;49.858;8.768;2023-05-20T14:59:58;6.95;;;5.80;;
6505;SDS011;3286;49.858;8.768;2023-05-20T15:02:25;8.25;;;5.95;;
6505;SDS011;3286;49.858;8.768;2023-05-20T15:04:51;17.35;;;6.15;;
6505;SDS011;3286;49.858;8.768;2023-05-20T15:07:19;6.88;;;5.63;;
6505;SDS011;3286;49.858;8.768;2023-05-20T15:09:46;7.22;;;5.93;;
6505;SDS011;3286;49.858;8.768;2023-05-20T15:12:14;8.30;;;6.43;;
6505;SDS011;3286;49.858;8.768;2023-05-20T15:14:40;8.02;;;5.85;;
6505;SDS011;3286;49.858;8.768;2023-05-20T15:17:07;10.25;;;6.55;;